Wind From: 20-06-2018 11:00 Until: 22:00 warning for: Wind Level: Yellow info button
suomi:
Tuulivaroitus maa-alueille: Länsituuli on voimakasta keskipäivästä alkaen, tuulen nopeus puuskissa 15 m/s.

svenska:
Vindvarning för landområden: Från och med middagen är den västliga vinden kraftigt, i vindbyarna 15 m/s.

english:
Wind warning for land areas: From noon on, strong winds from west may bring strong gusts of 15 m/s. 


Thunder radar more information blitzortung!


Löydät sääaseman tiedot myös:

European Weather Network

Finland Weather Exchange

Weather Underground

AWEKAS



Weather Underground säähistoriasivu

Päivittäin yhteenveto Huhtikuu 21, 2017 Yksiköt:  Englantilaiset    Metriset   Molemmat
« Edellinen Päivä
Seuraava Päivä »
Päivittäin Viikoittain Kuukausittain Vuosittain Mukautettu
  Korkea: Matala: Keskiarvo:
Lämpötila: TemperatureC °F -0.3 °F 3.7 °F
Kastepiste: DewpointC °F -3.4 °F -0.4 °F
Kosteus: Humidity % 44 % 76 %
Tuulen nopeus: WindSpeedKMH mph 0.0 mph 4.6 mph
Tuulenpuuska: WindSpeedGustKMH mph - -
Tuuli:- - SW
Ilmanpaine: PressurehPa in 986.3 in -
Sade: 0.5 in    
Historical Graphs
 
 
Taulukkotiedot Huhtikuu 21, 2017
Aika Lämpötila Kastepiste Ilmanpaine Tuuli Tuulen nopeus Tuulenpuuska Kosteus Sademäärä (tunneittain)
TemperatureC °F DewpointC °F PressurehPa in Calm     Humidity % HourlyPrecipMM in
00:00 1.6 °F 0.9 °F 1003.6 in SSW 4.8 mph 9.7 mph 95 % 0.0 in
00:15 1.5 °F 0.9 °F 1003.6 in SSW 6.4 mph 9.7 mph 96 % 0.0 in
00:30 1.3 °F 0.6 °F 1003.3 in SSW 3.2 mph 8.0 mph 95 % 0.0 in
00:45 1.1 °F 0.4 °F 1002.6 in Calm   9.7 mph 95 % 0.0 in
01:00 0.9 °F 0.2 °F 1002.6 in SSW 1.6 mph 8.0 mph 95 % 0.0 in
01:15 0.7 °F 0.0 °F 1002.3 in South 1.6 mph 6.4 mph 95 % 0.0 in
01:30 0.4 °F -0.3 °F 1001.9 in Calm   3.2 mph 95 % 0.0 in
01:45 0.3 °F -0.2 °F 1001.6 in Calm   6.4 mph 96 % 0.0 in
02:00 0.2 °F -0.5 °F 1001.6 in Calm   4.8 mph 95 % 0.0 in
02:15 0.0 °F -0.6 °F 1001.2 in Calm   3.2 mph 96 % 0.0 in
02:30 0.0 °F -0.6 °F 1001.2 in SSE 1.6 mph 6.4 mph 96 % 0.0 in
02:45 0.0 °F -0.6 °F 1000.9 in Calm   6.4 mph 96 % 0.0 in
03:00 -0.2 °F -0.7 °F 1000.6 in Calm   8.0 mph 96 % 0.0 in
03:15 -0.1 °F -0.7 °F 1000.2 in South 1.6 mph 4.8 mph 96 % 0.0 in
03:30 -0.1 °F -0.6 °F 999.9 in Calm   3.2 mph 96 % 0.0 in
03:45 -0.3 °F -0.8 °F 999.5 in Calm   1.6 mph 96 % 0.0 in
04:00 -0.2 °F -0.8 °F 999.2 in Calm   4.8 mph 96 % 0.0 in
04:15 0.2 °F -0.4 °F 999.2 in SSW 1.6 mph 8.0 mph 96 % 0.0 in
04:30 0.5 °F -0.1 °F 998.9 in SSW 3.2 mph 8.0 mph 96 % 0.0 in
04:45 0.7 °F 0.2 °F 998.5 in SSW 1.6 mph 8.0 mph 96 % 0.0 in
05:00 0.7 °F 0.0 °F 998.5 in SW 1.6 mph 6.4 mph 95 % 0.0 in
05:15 0.6 °F -0.2 °F 998.2 in Calm   4.8 mph 95 % 0.0 in
05:30 0.6 °F -0.2 °F 997.9 in SW 3.2 mph 9.7 mph 95 % 0.0 in
05:45 0.6 °F -0.2 °F 997.2 in SSW 3.2 mph 9.7 mph 94 % 0.0 in
06:00 0.7 °F -0.2 °F 996.8 in SSW 3.2 mph 9.7 mph 94 % 0.0 in
06:15 0.8 °F -0.1 °F 996.5 in SSW 3.2 mph 11.3 mph 94 % 0.0 in
06:30 0.8 °F -0.2 °F 996.2 in SSW 3.2 mph 8.0 mph 93 % 0.0 in
06:45 1.2 °F 0.0 °F 996.2 in SSW 6.4 mph 12.9 mph 92 % 0.0 in
07:00 1.4 °F 0.1 °F 996.2 in SSW 4.8 mph 9.7 mph 91 % 0.0 in
07:15 1.5 °F 0.0 °F 995.5 in SSW 4.8 mph 12.9 mph 90 % 0.0 in
07:30 1.6 °F 0.1 °F 995.5 in SSW 4.8 mph 12.9 mph 90 % 0.0 in
07:45 2.1 °F 0.4 °F 995.1 in SSW 4.8 mph 12.9 mph 89 % 0.0 in
08:00 2.5 °F 0.6 °F 994.8 in SW 4.8 mph 14.5 mph 87 % 0.0 in
08:15 2.9 °F 0.8 °F 994.8 in SW 4.8 mph 12.9 mph 86 % 0.0 in
08:30 3.1 °F 0.8 °F 994.5 in SW 3.2 mph 16.1 mph 85 % 0.0 in
08:45 3.4 °F 1.0 °F 994.5 in WSW 3.2 mph 14.5 mph 84 % 0.0 in
09:00 3.9 °F 0.9 °F 994.5 in West 4.8 mph 16.1 mph 81 % 0.0 in
09:15 4.2 °F 0.7 °F 994.1 in WSW 6.4 mph 16.1 mph 78 % 0.0 in
09:30 4.7 °F 0.8 °F 994.1 in WSW 4.8 mph 20.9 mph 76 % 0.0 in
09:45 5.0 °F 0.4 °F 994.1 in West 8.0 mph 19.3 mph 72 % 0.0 in
10:00 5.3 °F -0.4 °F 993.8 in West 8.0 mph 17.7 mph 67 % 0.0 in
10:15 5.1 °F -0.2 °F 993.8 in West 6.4 mph 24.1 mph 69 % 0.0 in
10:30 5.5 °F -0.1 °F 993.8 in SW 8.0 mph 27.4 mph 67 % 0.0 in
10:45 5.4 °F -0.8 °F 993.5 in WNW 9.7 mph 37.0 mph 64 % 0.0 in
11:00 5.5 °F -0.6 °F 993.1 in West 9.7 mph 25.7 mph 65 % 0.0 in
11:15 5.8 °F -0.3 °F 993.1 in WSW 6.4 mph 14.5 mph 65 % 0.0 in
11:30 5.7 °F -0.4 °F 993.1 in SW 8.0 mph 24.1 mph 65 % 0.0 in
11:45 4.7 °F 0.7 °F 993.5 in West 8.0 mph 19.3 mph 75 % 0.0 in
12:00 3.9 °F 0.4 °F 993.8 in SW 8.0 mph 20.9 mph 78 % 0.0 in
12:15 2.8 °F 1.0 °F 993.8 in SW 4.8 mph 14.5 mph 88 % 0.0 in
12:30 2.8 °F 1.3 °F 993.5 in SW 6.4 mph 17.7 mph 90 % 0.3 in
12:45 2.7 °F 1.5 °F 993.5 in SSW 6.4 mph 14.5 mph 92 % 0.3 in
13:00 3.1 °F 1.9 °F 993.1 in SSW 4.8 mph 20.9 mph 92 % 0.3 in
13:15 3.9 °F 2.0 °F 992.8 in SSW 8.0 mph 14.5 mph 87 % 0.3 in
13:30 4.9 °F 1.9 °F 992.8 in SW 8.0 mph 22.5 mph 81 % 0.0 in
13:45 6.3 °F 1.5 °F 992.4 in SW 8.0 mph 25.7 mph 71 % 0.0 in
14:00 6.5 °F 0.2 °F 992.4 in SW 8.0 mph 25.7 mph 64 % 0.0 in
14:15 6.7 °F 0.3 °F 992.1 in WSW 8.0 mph 19.3 mph 64 % 0.0 in
14:30 6.8 °F 0.3 °F 992.1 in SW 6.4 mph 16.1 mph 63 % 0.0 in
14:45 7.7 °F -0.1 °F 992.1 in SW 8.0 mph 19.3 mph 58 % 0.0 in
15:00 8.3 °F 0.5 °F 991.8 in WSW 6.4 mph 20.9 mph 58 % 0.0 in
15:15 7.9 °F -0.1 °F 991.8 in SW 8.0 mph 27.4 mph 57 % 0.0 in
15:30 8.4 °F -0.6 °F 991.4 in WSW 6.4 mph 14.5 mph 53 % 0.0 in
15:45 7.9 °F -1.1 °F 991.4 in West 9.7 mph 27.4 mph 53 % 0.0 in
16:00 8.1 °F -1.7 °F 991.4 in West 9.7 mph 24.1 mph 50 % 0.0 in
16:15 7.8 °F -2.0 °F 991.1 in WSW 6.4 mph 25.7 mph 50 % 0.0 in
16:30 8.3 °F -1.3 °F 991.1 in WNW 6.4 mph 16.1 mph 51 % 0.0 in
16:45 8.6 °F -2.4 °F 990.7 in WSW 8.0 mph 30.6 mph 46 % 0.0 in
17:00 8.7 °F -2.3 °F 990.4 in WSW 9.7 mph 22.5 mph 46 % 0.0 in
17:15 9.0 °F -2.0 °F 990.4 in WSW 8.0 mph 16.1 mph 46 % 0.0 in
17:30 8.8 °F -2.5 °F 990.1 in WSW 8.0 mph 24.1 mph 45 % 0.0 in
17:45 8.2 °F -3.4 °F 990.1 in WNW 8.0 mph 25.7 mph 44 % 0.0 in
18:00 7.5 °F -3.4 °F 990.1 in West 4.8 mph 25.7 mph 46 % 0.0 in
18:15 8.1 °F -2.9 °F 989.7 in West 8.0 mph 20.9 mph 46 % 0.0 in
18:30 7.8 °F -2.8 °F 989.4 in West 4.8 mph 16.1 mph 47 % 0.0 in
18:45 7.6 °F -2.7 °F 989.4 in West 4.8 mph 19.3 mph 48 % 0.0 in
19:00 6.8 °F -2.6 °F 989.4 in West 4.8 mph 20.9 mph 51 % 0.0 in
19:15 6.7 °F -2.5 °F 989.1 in SW 3.2 mph 12.9 mph 52 % 0.0 in
19:30 6.5 °F -2.7 °F 988.7 in West 6.4 mph 17.7 mph 52 % 0.3 in
19:45 5.8 °F -1.8 °F 989.1 in West 3.2 mph 11.3 mph 58 % 0.3 in
20:00 5.3 °F -1.4 °F 988.7 in SW 4.8 mph 11.3 mph 62 % 0.3 in
20:15 4.9 °F -1.4 °F 988.7 in West 1.6 mph 6.4 mph 64 % 0.0 in
20:45 4.1 °F -1.3 °F 988.4 in SW 1.6 mph 6.4 mph 68 % 0.0 in
21:00 3.9 °F -1.2 °F 988.4 in SSW 3.2 mph 9.7 mph 69 % 0.0 in
21:15 3.8 °F -1.3 °F 988.0 in SSW 4.8 mph 9.7 mph 69 % 0.0 in
21:30 3.8 °F -1.2 °F 988.0 in SSW 3.2 mph 12.9 mph 70 % 0.0 in
21:45 3.7 °F -1.1 °F 988.0 in SSW 1.6 mph 8.0 mph 71 % 0.0 in
22:00 3.5 °F -1.3 °F 988.0 in WSW 1.6 mph 12.9 mph 71 % 0.0 in
22:15 3.4 °F -0.8 °F 987.7 in WSW 4.8 mph 17.7 mph 74 % 0.0 in
22:30 2.8 °F 0.1 °F 987.7 in SW 3.2 mph 9.7 mph 82 % 0.0 in
22:45 2.2 °F 0.1 °F 987.4 in SSW 3.2 mph 11.3 mph 86 % 0.0 in
23:00 1.9 °F 0.0 °F 987.0 in SSW 1.6 mph 6.4 mph 87 % 0.0 in
23:15 1.8 °F -0.1 °F 987.0 in SSW 3.2 mph 12.9 mph 87 % 0.0 in
23:30 1.9 °F 0.0 °F 986.7 in SSW 3.2 mph 9.7 mph 87 % 0.0 in
23:45 1.9 °F 0.0 °F 986.3 in SSW 4.8 mph 11.3 mph 87 % 0.0 in
Esan sääasema
Terveisin Weather Underground - 3 mb

Alkuperäinen skripti  Jim McMurry - jmcmurry@mwt.net Sovitettu myös templatelle  Wim van der Kuil - Leuven-Template.eu

Laitteet joita käytämme:

Sääasema
Davis VP2

Sääasemaohjelma
Cumulus

Sääaseman tietokone
Asus EeePC

Palveluntarjoaja
Suncomet

Davis VP2

Cumulus

Asus EeePC

Suncomet